AIRPORT MAP

 RUNWAY INFORMATION

Runway 05 Runway length 7799 ft Runway width 148 ft
Runway elevation 297 ft Runway displaced threshold 0 ft Runway heading 56
Runway 23 Runway length 7799 ft Runway width 148 ft
Runway elevation 247 ft Runway displaced threshold 0 ft Runway heading 236
Runway 13 Runway length 11627 ft Runway width 197 ft
Runway elevation 256 ft Runway displaced threshold 0 ft Runway heading 135
Runway 31 Runway length 11627 ft Runway width 197 ft
Runway elevation 230 ft Runway displaced threshold 620 ft Runway heading 315

 AIRPORT FREQUENCIES

Type APP Name APP Frequency 128.15 MHZ
Type Distance R Name Frequency 130.975 MHZ
Type Ground Name Ground Frequency 121.6 MHZ
Type Leaving Name Frequency 123.625 MHZ
Type Runway Name Runway Frequency 138.1 MHZ
Type Volmet Name Frequency 126.8 MHZ
Type Weather Name WX Frequency 127.4 MHZ

 AIRPORT NEAR NAVIGATION AIDS

Type DME Name Malta Frequency 110500 KHZ
Type DME Name Luqa Frequency 109700 KHZ
Type NDB Name Luqa Frequency 416 KHZ
Type NDB Name Malta Frequency 395 KHZ

 METAR AND TAF INFORMATION

METAR FOR LMML
ADDS - METARS form results

(0914 UTC 27 May 2020)
Data provider http://aviationweather.gov/metar/data/
 
METAR text: LMML 270845Z 14007KT 110V170 7000 R13/0450D SHRA BKN018TCU 20/14 Q1023 BECMG 9000
Conditions at: LMML (LUQA/MALTA , MT) observed 0845 UTC 27 May 2020
Temperature: 20.0°C (68°F)
Dewpoint: 14.0°C (57°F) [RH = 68%]
Pressure (altimeter): 30.21 inches Hg (1023.0 mb)
Winds: from the SE (140 degrees) at 8 MPH (7 knots; 3.6 m/s)
Visibility: 4 miles ( 7 km)
Ceiling: 1800 feet AGL
Clouds: broken clouds at 1800 feet AGL
Weather: SHRA  (rain showers)

METAR text: LMML 270838Z 14007KT 7000 R13/0900D SHRA BKN020TCU 20/14 Q1023 TEMPO 5000 SHRA BKN015TCU
Conditions at: LMML (LUQA/MALTA , MT) observed 0838 UTC 27 May 2020
Temperature: 20.0°C (68°F)
Dewpoint: 14.0°C (57°F) [RH = 68%]
Pressure (altimeter): 30.21 inches Hg (1023.0 mb)
Winds: from the SE (140 degrees) at 8 MPH (7 knots; 3.6 m/s)
Visibility: 4 miles ( 7 km)
Ceiling: 2000 feet AGL
Clouds: broken clouds at 2000 feet AGL
Weather: SHRA  (rain showers)

METAR text: LMML 270815Z AUTO 12008KT 070V170 9999 OVC027/// 21/14 Q1022
Conditions at: LMML (LUQA/MALTA , MT) observed 0815 UTC 27 May 2020
Temperature: 21.0°C (70°F)
Dewpoint: 14.0°C (57°F) [RH = 64%]
Pressure (altimeter): 30.18 inches Hg (1022.0 mb)
Winds: from the ESE (120 degrees) at 9 MPH (8 knots; 4.1 m/s)
Visibility: 6 or more miles (10+ km)
Ceiling: 2700 feet AGL
Clouds: overcast cloud deck at 2700 feet AGL
Weather: no significant weather observed at this time

Forecast for: LMML (LUQA/MALTA , MT)
Text: TAF LMML 270600Z 2706/2806 VRB05KT 9999 FEW018
Forecast period: 0600 UTC 27 May 2020 to 0600 UTC 28 May 2020
Forecast type: FROM: standard forecast or significant change
Winds: variable direction winds at 6 MPH (5 knots; 2.6 m/s)
Visibility: 6 or more miles 10+ km)
Ceiling: at least 12,000 feet AGL
Clouds: few clouds at 1800 feet AGL
Weather: no significant weather forecast for this period
Text: PROB30
Forecast period: 0800 UTC 27 May 2020 to 0600 UTC 28 May 2020
Forecast type: TEMPORARY: The following changes expected for less than half the time period
Visibility: 5 miles (8 km)
Ceiling: at least 12,000 feet AGL
Clouds: scattered clouds at 2000 feet AGL
Weather: SHRA  (rain showers)